CheckWX is a tool to help pilots better visualize weather data.  It is not intended as a substitute for an official pre-flight weather briefing.

12:21:45 UTC

KAUN METAR
Auburn Municipal Airport
Auburn, California, USA
Current

27 mins ago

KAUN 161155Z AUTO 07006KT 10SM CLR 20/11 A2989 RMK A01
Observed
Jul-16 @ 11:55 UTC
Wind
  • 070° at 6 KTS
Visibility
10 SM
Flight Rules
VFR
Cloud Levels
  • Clear skies
Temperature
20°C / 68°F
Dewpoint
11°C / 52°F
Humidity
56%
Altimeter
29.89" Hg
Pressure
1012.22 hPa
Previous

47 mins ago

KAUN 161135Z AUTO 07005KT 10SM CLR 20/11 A2989 RMK A01
Observed
Jul-16 @ 11:35 UTC
Wind
  • 070° at 5 KTS
Visibility
10 SM
Flight Rules
VFR
Cloud Levels
  • Clear skies
Temperature
20°C / 68°F
Dewpoint
11°C / 52°F
Humidity
56%
Altimeter
29.89" Hg
Pressure
1012.22 hPa
Previous

1 hour ago

KAUN 161115Z AUTO 06005KT 10SM CLR 21/11 A2989 RMK A01
Observed
Jul-16 @ 11:15 UTC
Wind
  • 060° at 5 KTS
Visibility
10 SM
Flight Rules
VFR
Cloud Levels
  • Clear skies
Temperature
21°C / 70°F
Dewpoint
11°C / 52°F
Humidity
53%
Altimeter
29.89" Hg
Pressure
1012.22 hPa